createdAt,value
2023-08-24T00:01:39.724Z,100.00
2023-08-24T00:03:41.851Z,100.00
2023-08-24T00:05:44.964Z,100.00
2023-08-24T00:07:49.560Z,100.00
2023-08-24T00:09:55.125Z,100.00
2023-08-24T00:11:58.024Z,100.00
2023-08-24T00:14:02.304Z,100.00
2023-08-24T00:16:05.534Z,100.00
2023-08-24T00:18:08.659Z,100.00
2023-08-24T00:20:12.437Z,100.00
2023-08-24T00:22:15.387Z,100.00
2023-08-24T00:24:18.321Z,100.00
2023-08-24T00:26:21.293Z,100.00
2023-08-24T00:28:23.189Z,100.00
2023-08-24T00:30:27.556Z,100.00
2023-08-24T00:32:29.684Z,100.00
2023-08-24T00:34:32.932Z,100.00
2023-08-24T00:36:36.032Z,100.00
2023-08-24T00:38:39.145Z,100.00
2023-08-24T00:40:44.790Z,100.00
2023-08-24T00:42:48.248Z,100.00
2023-08-24T00:44:51.258Z,100.00
2023-08-24T00:46:56.142Z,100.00
2023-08-24T00:48:59.183Z,100.00
2023-08-24T00:51:03.235Z,100.00
2023-08-24T00:53:06.240Z,100.00
2023-08-24T00:55:09.243Z,100.00
2023-08-24T00:57:12.616Z,100.00
2023-08-24T00:59:14.592Z,100.00
2023-08-24T01:01:17.750Z,100.00
2023-08-24T01:03:24.483Z,100.00
2023-08-24T01:05:28.072Z,100.00
2023-08-24T01:07:30.313Z,100.00
2023-08-24T01:09:33.279Z,100.00
2023-08-24T01:11:59.337Z,100.00
2023-08-24T01:14:06.082Z,100.00
2023-08-24T01:16:11.858Z,100.00
2023-08-24T01:18:17.824Z,100.00
2023-08-24T01:20:22.569Z,100.00
2023-08-24T01:22:36.017Z,100.00
2023-08-24T01:24:42.201Z,100.00
2023-08-24T01:26:46.756Z,100.00
2023-08-24T01:28:50.118Z,100.00
2023-08-24T01:30:53.482Z,100.00
2023-08-24T01:32:56.564Z,100.00
2023-08-24T01:34:59.575Z,100.00
2023-08-24T01:37:02.502Z,100.00
2023-08-24T01:39:24.676Z,100.00
2023-08-24T01:41:30.745Z,100.00
2023-08-24T01:43:43.785Z,100.00
2023-08-24T01:45:47.990Z,100.00
2023-08-24T01:47:51.732Z,100.00
2023-08-24T01:49:55.681Z,100.00
2023-08-24T01:51:59.109Z,100.00
2023-08-24T01:54:02.069Z,100.00
2023-08-24T01:56:10.684Z,100.00
2023-08-24T01:58:13.601Z,100.00
2023-08-24T02:00:18.387Z,100.00
2023-08-24T02:02:23.993Z,100.00
2023-08-24T02:04:26.958Z,100.00
2023-08-24T02:06:29.884Z,100.00
2023-08-24T02:08:32.843Z,100.00
2023-08-24T02:10:35.806Z,100.00
2023-08-24T02:12:40.311Z,100.00
2023-08-24T02:14:42.270Z,100.00
2023-08-24T02:16:46.764Z,100.00
2023-08-24T02:18:49.683Z,100.00
2023-08-24T02:20:52.760Z,100.00
2023-08-24T02:22:55.672Z,100.00
2023-08-24T02:24:58.043Z,100.00
2023-08-24T02:27:00.969Z,100.00
2023-08-24T02:29:04.094Z,100.00
2023-08-24T02:31:07.275Z,100.00
2023-08-24T02:33:11.550Z,100.00
2023-08-24T02:35:14.990Z,100.00
2023-08-24T02:37:19.242Z,100.00
2023-08-24T02:39:22.181Z,100.00
2023-08-24T02:41:25.463Z,100.00
2023-08-24T02:43:28.466Z,100.00
2023-08-24T02:45:31.422Z,100.00
2023-08-24T02:47:34.969Z,100.00
2023-08-24T02:49:39.853Z,100.00
2023-08-24T02:51:43.061Z,100.00
2023-08-24T02:53:46.014Z,100.00
2023-08-24T02:55:48.930Z,100.00
2023-08-24T02:57:52.124Z,100.00
2023-08-24T02:59:56.238Z,100.00
2023-08-24T03:01:59.621Z,100.00
2023-08-24T03:04:02.642Z,100.00
2023-08-24T03:06:08.555Z,100.00
2023-08-24T03:08:14.007Z,100.00
2023-08-24T03:10:17.243Z,100.00
2023-08-24T03:12:20.202Z,100.00
2023-08-24T03:14:23.140Z,100.00
2023-08-24T03:16:26.064Z,100.00
2023-08-24T03:22:05.793Z,100.00
2023-08-24T03:24:08.898Z,100.00
2023-08-24T03:26:11.806Z,100.00
2023-08-24T03:28:14.822Z,100.00
2023-08-24T03:30:18.061Z,100.00
2023-08-24T03:32:21.128Z,100.00
2023-08-24T03:34:24.419Z,100.00
2023-08-24T03:36:27.500Z,100.00
2023-08-24T03:38:32.049Z,100.00
2023-08-24T03:40:34.977Z,100.00
2023-08-24T03:42:37.927Z,100.00
2023-08-24T03:44:40.899Z,100.00
2023-08-24T03:46:43.927Z,100.00
2023-08-24T03:48:46.943Z,100.00
2023-08-24T03:50:49.939Z,100.00
2023-08-24T03:52:52.212Z,100.00
2023-08-24T03:54:56.589Z,100.00
2023-08-24T03:56:59.593Z,100.00
2023-08-24T03:59:04.566Z,100.00
2023-08-24T04:01:12.442Z,100.00
2023-08-24T04:03:15.705Z,100.00
2023-08-24T04:05:18.847Z,100.00
2023-08-24T04:07:21.786Z,100.00
2023-08-24T04:09:24.751Z,100.00
2023-08-24T04:11:29.913Z,100.00
2023-08-24T04:13:33.508Z,100.00
2023-08-24T04:15:36.456Z,100.00
2023-08-24T04:17:41.742Z,100.00
2023-08-24T04:19:45.646Z,100.00
2023-08-24T04:21:49.423Z,100.00
2023-08-24T04:23:52.376Z,100.00
2023-08-24T04:25:55.637Z,100.00
2023-08-24T04:27:59.950Z,100.00
2023-08-24T04:30:02.179Z,100.00
2023-08-24T04:32:05.628Z,100.00
2023-08-24T04:34:08.622Z,100.00
2023-08-24T04:36:11.612Z,100.00
2023-08-24T04:38:14.590Z,100.00
2023-08-24T04:40:17.604Z,100.00
2023-08-24T04:42:20.568Z,100.00
2023-08-24T04:44:23.862Z,100.00
2023-08-24T04:46:27.617Z,100.00
2023-08-24T04:48:33.894Z,100.00
2023-08-24T04:50:40.764Z,100.00
2023-08-24T04:52:43.730Z,100.00
2023-08-24T04:54:46.643Z,100.00
2023-08-24T04:56:49.643Z,100.00
2023-08-24T04:58:56.438Z,100.00
2023-08-24T05:01:00.884Z,100.00
2023-08-24T05:03:04.499Z,100.00
2023-08-24T05:05:09.728Z,100.00
2023-08-24T05:07:12.676Z,100.00
2023-08-24T05:09:15.650Z,100.00
2023-08-24T05:11:25.176Z,100.00
2023-08-24T05:13:28.240Z,100.00
2023-08-24T05:15:30.177Z,100.00
2023-08-24T05:17:34.536Z,100.00
2023-08-24T05:19:37.540Z,100.00
2023-08-24T05:21:40.447Z,100.00
2023-08-24T05:23:43.443Z,100.00
2023-08-24T05:25:46.350Z,100.00
2023-08-24T05:27:49.713Z,100.00
2023-08-24T05:29:52.905Z,100.00
2023-08-24T05:31:55.823Z,100.00
2023-08-24T05:34:00.221Z,100.00
2023-08-24T05:36:03.195Z,100.00
2023-08-24T05:38:06.312Z,100.00
2023-08-24T05:40:10.460Z,100.00
2023-08-24T05:42:13.585Z,100.00
2023-08-24T05:44:18.105Z,100.00
2023-08-24T05:46:21.372Z,100.00
2023-08-24T05:48:24.522Z,100.00
2023-08-24T05:50:28.815Z,100.00
2023-08-24T05:52:32.332Z,100.00
2023-08-24T05:54:35.657Z,100.00
2023-08-24T05:56:38.603Z,100.00
2023-08-24T05:58:41.646Z,100.00
2023-08-24T06:00:44.804Z,100.00
2023-08-24T06:02:47.067Z,100.00
2023-08-24T06:04:51.705Z,100.00
2023-08-24T06:06:56.041Z,100.00
2023-08-24T06:08:58.959Z,100.00
2023-08-24T06:11:01.917Z,100.00
2023-08-24T06:13:05.292Z,100.00
2023-08-24T06:15:10.903Z,100.00
2023-08-24T06:17:13.889Z,100.00
2023-08-24T06:19:16.803Z,100.00
2023-08-24T06:21:19.763Z,100.00
2023-08-24T06:23:24.006Z,100.00
2023-08-24T06:25:27.059Z,100.00
2023-08-24T06:27:30.025Z,100.00
2023-08-24T06:29:33.781Z,100.00
2023-08-24T06:31:37.975Z,100.00
2023-08-24T06:33:41.025Z,100.00
2023-08-24T06:35:44.153Z,100.00
2023-08-24T06:37:47.361Z,100.00
2023-08-24T06:39:51.631Z,100.00
2023-08-24T06:41:54.734Z,100.00
2023-08-24T06:44:01.791Z,100.00
2023-08-24T06:46:04.931Z,100.00
2023-08-24T06:48:11.794Z,100.00
2023-08-24T06:50:14.829Z,100.00
2023-08-24T06:52:17.819Z,100.00
2023-08-24T06:54:20.715Z,100.00
2023-08-24T06:56:25.009Z,100.00
2023-08-24T06:58:27.517Z,100.00
2023-08-24T07:00:30.596Z,100.00
2023-08-24T07:02:33.720Z,100.00
2023-08-24T07:04:38.133Z,100.00
2023-08-24T07:06:41.174Z,100.00
2023-08-24T07:08:44.109Z,100.00
2023-08-24T07:10:47.068Z,100.00
2023-08-24T07:12:51.430Z,100.00
2023-08-24T07:14:54.645Z,100.00
2023-08-24T07:16:57.723Z,100.00
2023-08-24T07:19:00.677Z,100.00
2023-08-24T07:21:04.025Z,100.00
2023-08-24T07:23:06.976Z,100.00
2023-08-24T07:25:12.522Z,100.00
2023-08-24T07:27:15.910Z,99.07
2023-08-24T07:29:20.262Z,83.08
2023-08-24T07:31:22.333Z,86.95
2023-08-24T07:33:26.001Z,74.15
2023-08-24T07:35:28.986Z,68.42
2023-08-24T07:37:32.127Z,60.50
2023-08-24T07:39:35.700Z,62.09
2023-08-24T07:41:38.700Z,65.78
2023-08-24T07:43:41.664Z,55.28
2023-08-24T07:45:46.181Z,56.51
2023-08-24T07:47:49.534Z,60.91
2023-08-24T07:49:52.961Z,55.76
2023-08-24T07:51:56.822Z,54.20
2023-08-24T07:53:58.805Z,58.46
2023-08-24T07:56:02.848Z,56.30
2023-08-24T07:58:06.008Z,53.89
2023-08-24T08:00:10.757Z,51.90
2023-08-24T08:02:17.561Z,53.71
2023-08-24T08:04:20.501Z,51.96
2023-08-24T08:06:25.691Z,53.83
2023-08-24T08:08:28.640Z,55.34
2023-08-24T08:10:30.609Z,54.60
2023-08-24T08:12:34.104Z,55.49
2023-08-24T08:14:37.321Z,57.88
2023-08-24T08:16:40.291Z,53.09
2023-08-24T08:18:44.738Z,53.80
2023-08-24T08:20:47.664Z,53.39
2023-08-24T08:25:33.964Z,60.10
2023-08-24T08:27:38.013Z,55.39
2023-08-24T08:29:41.039Z,59.47
2023-08-24T08:31:44.062Z,56.33
2023-08-24T08:33:48.582Z,54.87
2023-08-24T08:35:51.505Z,52.61
2023-08-24T08:37:55.010Z,54.31
2023-08-24T08:39:57.929Z,52.88
2023-08-24T08:42:00.837Z,48.06
2023-08-24T08:44:07.798Z,47.91
2023-08-24T08:46:12.845Z,47.25
2023-08-24T08:48:15.886Z,47.86
2023-08-24T08:50:20.249Z,51.29
2023-08-24T08:52:23.395Z,54.75
2023-08-24T08:54:26.442Z,53.74
2023-08-24T08:56:28.389Z,56.16
2023-08-24T08:58:32.006Z,57.79
2023-08-24T09:00:35.016Z,59.54
2023-08-24T09:02:38.065Z,65.88
2023-08-24T09:04:41.110Z,61.77
2023-08-24T09:06:45.823Z,61.78
2023-08-24T09:08:49.376Z,64.76
2023-08-24T09:10:52.381Z,59.09
2023-08-24T09:12:55.539Z,56.91
2023-08-24T09:14:58.449Z,66.89
2023-08-24T09:17:01.610Z,70.96
2023-08-24T09:19:07.495Z,72.24
2023-08-24T09:21:11.392Z,68.46
2023-08-24T09:23:21.931Z,67.62
2023-08-24T09:25:24.943Z,71.75
2023-08-24T09:27:27.888Z,61.76
2023-08-24T09:29:38.638Z,56.42
2023-08-24T09:31:42.026Z,61.48
2023-08-24T09:33:47.050Z,57.97
2023-08-24T09:35:54.780Z,53.89
2023-08-24T09:37:57.699Z,57.53
2023-08-24T09:40:08.694Z,55.15
2023-08-24T09:42:11.652Z,58.96
2023-08-24T09:44:14.584Z,59.56
2023-08-24T09:46:21.961Z,61.11
2023-08-24T09:48:32.183Z,57.19
2023-08-24T09:50:35.263Z,60.25
2023-08-24T09:52:39.827Z,57.48
2023-08-24T09:54:43.959Z,54.47
2023-08-24T09:56:49.364Z,52.84
2023-08-24T09:58:53.811Z,59.46
2023-08-24T10:00:57.780Z,62.82
2023-08-24T10:03:01.365Z,61.57
2023-08-24T10:05:06.107Z,62.23
2023-08-24T10:07:12.829Z,59.55
2023-08-24T10:09:21.584Z,56.12
2023-08-24T10:11:28.215Z,58.95
2023-08-24T10:13:38.087Z,57.78
2023-08-24T10:15:47.743Z,62.12
2023-08-24T10:17:52.024Z,63.64
2023-08-24T10:19:55.233Z,66.70
2023-08-24T10:21:59.325Z,65.58
2023-08-24T10:24:04.277Z,71.16
2023-08-24T10:26:09.254Z,64.38
2023-08-24T10:28:13.263Z,67.83
2023-08-24T10:30:18.151Z,64.09
2023-08-24T10:32:21.029Z,61.37
2023-08-24T10:34:24.342Z,60.00
2023-08-24T10:36:27.897Z,62.09
2023-08-24T10:38:32.055Z,66.79
2023-08-24T10:40:35.287Z,66.15
2023-08-24T10:42:47.837Z,68.81
2023-08-24T10:44:51.677Z,62.64
2023-08-24T10:47:14.632Z,61.52
2023-08-24T10:49:20.232Z,59.05
2023-08-24T10:51:27.133Z,61.33
2023-08-24T10:53:42.244Z,65.51
2023-08-24T10:55:45.482Z,55.39
2023-08-24T10:57:58.068Z,52.98
2023-08-24T11:00:09.076Z,58.90
2023-08-24T11:02:20.061Z,62.16
2023-08-24T11:04:22.987Z,62.63
2023-08-24T11:06:29.521Z,61.87
2023-08-24T11:08:48.819Z,58.68
2023-08-24T11:10:52.227Z,54.94
2023-08-24T11:13:14.048Z,56.89
2023-08-24T11:15:31.808Z,59.08
2023-08-24T11:17:36.231Z,57.22
2023-08-24T11:19:39.164Z,61.26
2023-08-24T11:21:42.660Z,58.75
2023-08-24T11:23:46.779Z,60.17
2023-08-24T11:25:52.584Z,59.31
2023-08-24T11:27:56.045Z,61.69
2023-08-24T11:30:02.881Z,60.63
2023-08-24T11:32:06.392Z,62.06
2023-08-24T11:34:10.916Z,57.80
2023-08-24T11:36:13.977Z,62.65
2023-08-24T11:38:17.010Z,62.93
2023-08-24T11:40:21.581Z,67.98
2023-08-24T11:42:24.598Z,58.66
2023-08-24T11:44:29.484Z,66.06
2023-08-24T11:46:32.990Z,63.77
2023-08-24T11:48:37.785Z,61.97
2023-08-24T11:50:43.275Z,63.85
2023-08-24T11:52:46.249Z,64.35
2023-08-24T11:54:49.487Z,66.82
2023-08-24T11:56:52.420Z,77.91
2023-08-24T11:58:55.377Z,68.54
2023-08-24T12:00:58.634Z,67.85
2023-08-24T12:03:01.900Z,73.01
2023-08-24T12:05:08.431Z,66.93
2023-08-24T12:07:13.455Z,64.77
2023-08-24T12:09:17.254Z,71.50
2023-08-24T12:11:21.513Z,67.03
2023-08-24T12:13:24.589Z,74.62
2023-08-24T12:15:30.910Z,73.65
2023-08-24T12:17:44.947Z,74.61
2023-08-24T12:19:59.233Z,68.79
2023-08-24T12:22:02.195Z,71.11
2023-08-24T12:24:07.867Z,70.91
2023-08-24T12:26:09.887Z,74.28
2023-08-24T12:28:14.123Z,80.42
2023-08-24T12:30:17.117Z,79.14
2023-08-24T12:32:23.394Z,77.36
2023-08-24T12:34:26.356Z,75.42
2023-08-24T12:36:29.833Z,81.68
2023-08-24T12:38:32.785Z,78.00
2023-08-24T12:40:37.083Z,80.75
2023-08-24T12:42:40.069Z,80.83
2023-08-24T12:44:43.377Z,82.66
2023-08-24T12:46:46.405Z,90.67
2023-08-24T12:48:49.459Z,86.85
2023-08-24T12:50:52.449Z,89.83
2023-08-24T12:52:57.448Z,90.22
2023-08-24T12:55:00.366Z,84.79
2023-08-24T12:57:04.901Z,85.63
2023-08-24T12:59:07.802Z,72.52
2023-08-24T13:01:10.751Z,79.63
2023-08-24T13:03:14.059Z,78.09
2023-08-24T13:05:17.110Z,76.86
2023-08-24T13:07:20.031Z,83.45
2023-08-24T13:09:22.949Z,81.79
2023-08-24T13:11:25.950Z,83.97
2023-08-24T13:13:30.680Z,84.78
2023-08-24T13:15:33.642Z,85.38
2023-08-24T13:17:36.604Z,93.91
2023-08-24T13:19:39.706Z,94.36
2023-08-24T13:21:42.721Z,88.48
2023-08-24T13:23:45.651Z,98.87
2023-08-24T13:25:48.601Z,95.94
2023-08-24T13:27:51.805Z,96.31
2023-08-24T13:29:57.952Z,97.96
2023-08-24T13:32:00.956Z,100.00
2023-08-24T13:34:05.696Z,100.00
2023-08-24T13:36:08.748Z,100.00
2023-08-24T13:38:11.723Z,100.00
2023-08-24T13:40:14.875Z,100.00
2023-08-24T13:42:17.874Z,100.00
2023-08-24T13:44:20.866Z,100.00
2023-08-24T13:46:25.285Z,100.00
2023-08-24T13:48:30.048Z,100.00
2023-08-24T13:50:32.983Z,100.00
2023-08-24T13:52:35.933Z,100.00
2023-08-24T13:54:38.965Z,100.00
2023-08-24T13:56:41.989Z,100.00
2023-08-24T13:58:45.199Z,100.00
2023-08-24T14:00:48.170Z,100.00
2023-08-24T14:02:52.612Z,100.00
2023-08-24T14:04:56.371Z,100.00
2023-08-24T14:06:59.276Z,100.00
2023-08-24T14:09:01.654Z,100.00
2023-08-24T14:11:04.918Z,100.00
2023-08-24T14:13:07.856Z,100.00
2023-08-24T14:15:12.267Z,100.00
2023-08-24T14:17:15.375Z,100.00
2023-08-24T14:19:20.423Z,100.00
2023-08-24T14:21:41.907Z,100.00
2023-08-24T14:23:47.527Z,100.00
2023-08-24T14:25:50.606Z,100.00
2023-08-24T14:28:04.257Z,100.00
2023-08-24T14:30:09.246Z,100.00
2023-08-24T14:32:12.147Z,100.00
2023-08-24T14:34:15.077Z,100.00
2023-08-24T14:36:19.815Z,100.00
2023-08-24T14:38:22.874Z,100.00
2023-08-24T14:40:25.886Z,100.00
2023-08-24T14:42:28.884Z,100.00
2023-08-24T14:44:30.782Z,100.00
2023-08-24T14:46:35.160Z,100.00
2023-08-24T14:49:06.731Z,100.00
2023-08-24T14:51:09.829Z,100.00
2023-08-24T14:53:14.271Z,100.00
2023-08-24T14:55:19.564Z,100.00
2023-08-24T14:57:22.623Z,100.00
2023-08-24T14:59:25.625Z,100.00
2023-08-24T15:01:28.733Z,100.00
2023-08-24T15:03:56.640Z,100.00
2023-08-24T15:05:59.938Z,100.00
2023-08-24T15:08:03.775Z,100.00
2023-08-24T15:10:09.080Z,100.00
2023-08-24T15:12:12.074Z,100.00
2023-08-24T15:14:15.050Z,100.00
2023-08-24T15:16:18.604Z,100.00
2023-08-24T15:18:21.568Z,100.00
2023-08-24T15:20:24.502Z,100.00
2023-08-24T15:22:29.935Z,100.00
2023-08-24T15:24:33.082Z,100.00
2023-08-24T15:26:37.328Z,100.00
2023-08-24T15:29:10.747Z,100.00
2023-08-24T15:31:13.739Z,100.00
2023-08-24T15:33:16.972Z,100.00
2023-08-24T15:35:20.147Z,100.00
2023-08-24T15:37:23.469Z,100.00
2023-08-24T15:39:26.471Z,100.00
2023-08-24T15:41:31.198Z,100.00
2023-08-24T15:43:35.643Z,100.00
2023-08-24T15:45:38.735Z,100.00
2023-08-24T15:47:40.823Z,100.00
2023-08-24T15:49:43.993Z,100.00
2023-08-24T15:51:46.930Z,100.00
2023-08-24T15:53:49.856Z,100.00
2023-08-24T15:55:52.950Z,100.00
2023-08-24T15:57:56.734Z,100.00
2023-08-24T16:00:02.089Z,100.00
2023-08-24T16:02:15.096Z,100.00
2023-08-24T16:04:18.018Z,100.00
2023-08-24T16:06:20.980Z,100.00
2023-08-24T16:08:24.355Z,100.00
2023-08-24T16:10:27.578Z,100.00
2023-08-24T16:12:30.484Z,100.00
2023-08-24T16:14:33.429Z,100.00
2023-08-24T16:16:37.954Z,100.00
2023-08-24T16:18:40.922Z,100.00
2023-08-24T16:20:43.896Z,100.00
2023-08-24T16:22:46.962Z,100.00
2023-08-24T16:24:49.979Z,100.00
2023-08-24T16:26:52.915Z,100.00
2023-08-24T16:28:54.869Z,100.00
2023-08-24T16:30:57.921Z,100.00
2023-08-24T16:33:02.331Z,100.00
2023-08-24T16:35:05.808Z,100.00
2023-08-24T16:37:07.913Z,100.00
2023-08-24T16:39:10.819Z,100.00
2023-08-24T16:41:13.751Z,100.00
2023-08-24T16:43:16.802Z,100.00
2023-08-24T16:45:22.918Z,100.00
2023-08-24T16:47:25.983Z,100.00
2023-08-24T16:49:29.274Z,100.00
2023-08-24T16:51:32.309Z,100.00
2023-08-24T16:53:35.393Z,100.00
2023-08-24T16:55:38.336Z,100.00
2023-08-24T16:57:41.441Z,100.00
2023-08-24T16:59:44.373Z,100.00
2023-08-24T17:01:47.346Z,100.00
2023-08-24T17:03:50.387Z,100.00
2023-08-24T17:05:54.802Z,100.00
2023-08-24T17:08:06.011Z,100.00
2023-08-24T17:10:10.139Z,100.00
2023-08-24T17:12:13.408Z,100.00
2023-08-24T17:14:16.402Z,100.00
2023-08-24T17:16:19.551Z,100.00
2023-08-24T17:18:22.556Z,100.00
2023-08-24T17:20:25.732Z,100.00
2023-08-24T17:22:30.053Z,100.00
2023-08-24T17:24:33.001Z,100.00
2023-08-24T17:26:36.308Z,100.00
2023-08-24T17:28:39.430Z,100.00
2023-08-24T17:30:47.959Z,100.00
2023-08-24T17:32:51.159Z,100.00
2023-08-24T17:34:54.148Z,100.00
2023-08-24T17:36:57.162Z,100.00
2023-08-24T17:39:08.331Z,100.00
2023-08-24T17:41:11.761Z,100.00
2023-08-24T17:43:14.827Z,100.00
2023-08-24T17:45:20.031Z,100.00
2023-08-24T17:47:23.010Z,100.00
2023-08-24T17:49:26.045Z,100.00
2023-08-24T17:51:30.119Z,100.00
2023-08-24T17:53:32.369Z,100.00
2023-08-24T17:55:36.796Z,100.00
2023-08-24T17:57:39.797Z,100.00
2023-08-24T17:59:42.010Z,100.00
2023-08-24T18:01:44.990Z,100.00
2023-08-24T18:03:47.978Z,100.00
2023-08-24T18:05:53.732Z,100.00
2023-08-24T18:07:56.813Z,100.00
2023-08-24T18:10:00.338Z,100.00
2023-08-24T18:12:03.889Z,100.00
2023-08-24T18:14:06.824Z,100.00
2023-08-24T18:16:10.290Z,100.00
2023-08-24T18:18:13.295Z,100.00
2023-08-24T18:20:30.002Z,100.00
2023-08-24T18:22:33.884Z,100.00
2023-08-24T18:24:37.013Z,100.00
2023-08-24T18:26:39.098Z,100.00
2023-08-24T18:28:44.161Z,100.00
2023-08-24T18:30:47.278Z,100.00
2023-08-24T18:32:50.300Z,100.00
2023-08-24T18:34:53.504Z,100.00
2023-08-24T18:36:56.485Z,100.00
2023-08-24T18:38:59.531Z,100.00
2023-08-24T18:41:02.894Z,100.00
2023-08-24T18:43:06.034Z,100.00
2023-08-24T18:45:11.263Z,100.00
2023-08-24T18:47:14.253Z,100.00
2023-08-24T18:49:17.299Z,100.00
2023-08-24T18:51:23.405Z,100.00
2023-08-24T18:53:26.367Z,100.00
2023-08-24T18:55:29.352Z,100.00
2023-08-24T18:57:32.407Z,100.00
2023-08-24T18:59:34.423Z,100.00
2023-08-24T19:01:39.579Z,100.00
2023-08-24T19:03:42.733Z,100.00
2023-08-24T19:05:45.986Z,100.00
2023-08-24T19:07:48.912Z,100.00
2023-08-24T19:09:52.077Z,100.00
2023-08-24T19:11:55.207Z,100.00
2023-08-24T19:13:58.321Z,100.00
2023-08-24T19:16:02.294Z,100.00
2023-08-24T19:18:08.532Z,100.00
2023-08-24T19:20:12.295Z,100.00
2023-08-24T19:22:15.371Z,100.00
2023-08-24T19:24:18.941Z,100.00
2023-08-24T19:26:22.127Z,100.00
2023-08-24T19:28:25.275Z,100.00
2023-08-24T19:30:28.993Z,100.00
2023-08-24T19:32:32.429Z,100.00
2023-08-24T19:34:37.193Z,100.00
2023-08-24T19:36:39.243Z,100.00
2023-08-24T19:38:42.523Z,100.00
2023-08-24T19:40:44.889Z,100.00
2023-08-24T19:42:47.974Z,100.00
2023-08-24T19:44:51.124Z,100.00
2023-08-24T19:46:54.184Z,100.00
2023-08-24T19:48:57.428Z,100.00
2023-08-24T19:51:01.827Z,100.00
2023-08-24T19:53:06.672Z,100.00
2023-08-24T19:55:09.262Z,100.00
2023-08-24T19:57:15.198Z,100.00
2023-08-24T19:59:18.409Z,100.00
2023-08-24T20:01:21.475Z,100.00
2023-08-24T20:03:24.950Z,100.00
2023-08-24T20:05:28.747Z,100.00
2023-08-24T20:07:33.802Z,100.00
2023-08-24T20:09:36.959Z,100.00
2023-08-24T20:11:40.185Z,100.00
2023-08-24T20:13:43.143Z,100.00
2023-08-24T20:15:46.277Z,100.00
2023-08-24T20:17:52.221Z,100.00
2023-08-24T20:19:55.554Z,100.00
2023-08-24T20:21:59.574Z,100.00
2023-08-24T20:24:05.193Z,100.00
2023-08-24T20:26:11.566Z,100.00
2023-08-24T20:28:14.860Z,100.00
2023-08-24T20:30:18.687Z,100.00
2023-08-24T20:32:21.704Z,100.00
2023-08-24T20:34:24.930Z,100.00
2023-08-24T20:36:27.026Z,100.00
2023-08-24T20:38:30.184Z,100.00
2023-08-24T20:40:34.729Z,100.00
2023-08-24T20:42:37.739Z,100.00
2023-08-24T20:44:39.657Z,100.00
2023-08-24T20:46:46.010Z,100.00
2023-08-24T20:48:48.986Z,100.00
2023-08-24T20:50:51.960Z,100.00
2023-08-24T20:52:55.128Z,100.00
2023-08-24T20:54:58.074Z,100.00
2023-08-24T20:57:02.509Z,100.00
2023-08-24T20:59:05.883Z,100.00
2023-08-24T21:01:09.079Z,100.00
2023-08-24T21:03:12.297Z,100.00
2023-08-24T21:05:15.341Z,100.00
2023-08-24T21:07:18.709Z,100.00
2023-08-24T21:09:21.707Z,100.00
2023-08-24T21:11:24.828Z,100.00
2023-08-24T21:13:29.773Z,100.00
2023-08-24T21:15:35.986Z,100.00
2023-08-24T21:17:38.975Z,100.00
2023-08-24T21:19:42.295Z,100.00
2023-08-24T21:21:45.278Z,100.00
2023-08-24T21:23:48.518Z,100.00
2023-08-24T21:25:50.452Z,100.00
2023-08-24T21:27:53.510Z,100.00
2023-08-24T21:29:58.124Z,100.00
2023-08-24T21:32:01.126Z,100.00
2023-08-24T21:34:04.166Z,100.00
2023-08-24T21:36:07.446Z,100.00
2023-08-24T21:38:10.642Z,100.00
2023-08-24T21:40:14.110Z,100.00
2023-08-24T21:42:17.098Z,100.00
2023-08-24T21:44:20.127Z,100.00
2023-08-24T21:46:24.879Z,100.00
2023-08-24T21:48:26.988Z,100.00
2023-08-24T21:50:32.008Z,100.00
2023-08-24T21:52:34.934Z,100.00
2023-08-24T21:54:37.874Z,100.00
2023-08-24T21:56:40.897Z,100.00
2023-08-24T21:58:43.880Z,100.00
2023-08-24T22:00:46.901Z,100.00
2023-08-24T22:02:51.492Z,100.00
2023-08-24T22:04:54.944Z,100.00
2023-08-24T22:06:57.912Z,100.00
2023-08-24T22:08:59.893Z,100.00
2023-08-24T22:11:03.152Z,100.00
2023-08-24T22:13:06.186Z,100.00
2023-08-24T22:15:10.119Z,100.00
2023-08-24T22:17:13.402Z,100.00
2023-08-24T22:19:26.864Z,100.00
2023-08-24T22:21:30.710Z,100.00
2023-08-24T22:23:34.008Z,100.00
2023-08-24T22:25:37.004Z,100.00
2023-08-24T22:27:39.994Z,100.00
2023-08-24T22:29:43.065Z,100.00
2023-08-24T22:31:46.092Z,100.00
2023-08-24T22:33:49.065Z,100.00
2023-08-24T22:35:54.246Z,100.00
2023-08-24T22:37:57.281Z,100.00
2023-08-24T22:40:05.366Z,100.00
2023-08-24T22:42:09.421Z,100.00
2023-08-24T22:44:12.562Z,100.00
2023-08-24T22:46:15.646Z,100.00
2023-08-24T22:48:18.669Z,100.00
2023-08-24T22:50:21.149Z,100.00
2023-08-24T22:52:25.970Z,100.00
2023-08-24T22:54:29.089Z,100.00
2023-08-24T22:56:32.103Z,100.00
2023-08-24T22:58:35.280Z,100.00
2023-08-24T23:00:38.556Z,100.00
2023-08-24T23:02:41.550Z,100.00
2023-08-24T23:04:44.687Z,100.00
2023-08-24T23:06:48.799Z,100.00
2023-08-24T23:08:53.201Z,100.00
2023-08-24T23:10:56.138Z,100.00
2023-08-24T23:12:59.508Z,100.00
2023-08-24T23:15:03.866Z,100.00
2023-08-24T23:17:06.945Z,100.00
2023-08-24T23:19:12.219Z,100.00
2023-08-24T23:21:15.552Z,100.00
2023-08-24T23:23:18.466Z,100.00
2023-08-24T23:25:22.931Z,100.00
2023-08-24T23:27:25.908Z,100.00
2023-08-24T23:29:28.780Z,100.00
2023-08-24T23:31:32.212Z,100.00
2023-08-24T23:33:35.187Z,100.00
2023-08-24T23:35:38.089Z,100.00
2023-08-24T23:37:41.644Z,100.00
2023-08-24T23:39:44.675Z,100.00
2023-08-24T23:41:49.023Z,100.00
2023-08-24T23:43:51.997Z,100.00
2023-08-24T23:45:55.001Z,100.00
2023-08-24T23:47:58.110Z,100.00
2023-08-24T23:50:03.240Z,100.00
2023-08-24T23:52:06.519Z,100.00
2023-08-24T23:54:09.639Z,100.00
2023-08-24T23:56:13.992Z,100.00
2023-08-24T23:58:18.639Z,100.00
